createdAt,value
2019-03-10T00:00:41.504Z,94150.17
2019-03-10T00:03:10.240Z,94149.44
2019-03-10T00:05:41.155Z,94171.70
2019-03-10T00:08:09.380Z,94170.36
2019-03-10T00:10:38.001Z,94150.59
2019-03-10T00:13:06.693Z,94140.71
2019-03-10T00:15:35.339Z,94144.67
2019-03-10T00:18:04.131Z,94121.80
2019-03-10T00:20:32.759Z,94140.66
2019-03-10T00:23:01.424Z,94140.45
2019-03-10T00:25:30.052Z,94128.27
2019-03-10T00:27:58.744Z,94133.59
2019-03-10T00:30:27.380Z,94140.81
2019-03-10T00:32:56.027Z,94135.48
2019-03-10T00:35:24.656Z,94118.90
2019-03-10T00:37:54.937Z,94115.33
2019-03-10T00:40:54.716Z,94130.58
2019-03-10T00:43:42.725Z,94147.93
2019-03-10T00:46:41.664Z,94130.36
2019-03-10T00:49:21.643Z,94138.11
2019-03-10T00:52:04.979Z,94135.33
2019-03-10T00:54:33.652Z,94142.23
2019-03-10T00:57:02.439Z,94148.78
2019-03-10T00:59:31.123Z,94132.80
2019-03-10T01:01:59.767Z,94145.91
2019-03-10T01:04:28.377Z,94146.61
2019-03-10T01:06:57.485Z,94146.48
2019-03-10T01:09:26.267Z,94153.48
2019-03-10T01:11:54.893Z,94151.59
2019-03-10T01:14:23.585Z,94137.20
2019-03-10T01:16:52.216Z,94154.63
2019-03-10T01:19:20.979Z,94158.62
2019-03-10T01:21:49.930Z,94150.91
2019-03-10T01:24:18.562Z,94157.36
2019-03-10T01:26:47.245Z,94138.69
2019-03-10T01:29:17.431Z,94132.56
2019-03-10T01:32:05.689Z,94136.34
2019-03-10T01:34:43.511Z,94132.31
2019-03-10T01:37:12.186Z,94132.73
2019-03-10T01:39:40.810Z,94128.13
2019-03-10T01:42:09.492Z,94117.55
2019-03-10T01:44:38.181Z,94125.58
2019-03-10T01:47:06.820Z,94121.89
2019-03-10T01:49:35.510Z,94128.91
2019-03-10T01:52:04.154Z,94127.55
2019-03-10T01:54:32.903Z,94122.61
2019-03-10T01:57:01.658Z,94127.00
2019-03-10T01:59:30.353Z,94124.78
2019-03-10T02:01:59.036Z,94108.97
2019-03-10T02:04:27.655Z,94101.17
2019-03-10T02:06:56.333Z,94113.94
2019-03-10T02:09:25.011Z,94102.16
2019-03-10T02:11:53.631Z,94100.78
2019-03-10T02:14:22.311Z,94115.36
2019-03-10T02:16:50.936Z,94111.73
2019-03-10T02:19:19.610Z,94097.55
2019-03-10T02:21:48.224Z,94094.54
2019-03-10T02:24:23.629Z,94106.95
2019-03-10T02:26:47.322Z,94106.45
2019-03-10T02:29:15.957Z,94104.28
2019-03-10T02:31:44.645Z,94088.31
2019-03-10T02:34:13.275Z,94097.44
2019-03-10T02:36:41.981Z,94098.17
2019-03-10T02:39:10.585Z,94097.42
2019-03-10T02:41:39.269Z,94096.45
2019-03-10T02:44:10.666Z,94106.30
2019-03-10T02:46:39.352Z,94104.84
2019-03-10T02:49:08.055Z,94101.15
2019-03-10T02:51:36.747Z,94093.49
2019-03-10T02:54:06.834Z,94091.79
2019-03-10T02:56:35.526Z,94082.53
2019-03-10T02:59:04.142Z,94084.09
2019-03-10T03:01:32.844Z,94092.03
2019-03-10T03:04:01.459Z,94086.63
2019-03-10T03:06:32.154Z,94081.63
2019-03-10T03:09:00.492Z,94082.70
2019-03-10T03:11:31.683Z,94082.02
2019-03-10T03:14:00.293Z,94086.14
2019-03-10T03:16:29.006Z,94080.16
2019-03-10T03:18:57.634Z,94088.68
2019-03-10T03:21:41.570Z,94084.45
2019-03-10T03:23:56.651Z,94075.73
2019-03-10T03:26:25.320Z,94074.33
2019-03-10T03:28:54.040Z,94077.06
2019-03-10T03:31:22.682Z,94071.55
2019-03-10T03:33:53.005Z,94078.62
2019-03-10T03:36:26.921Z,94077.25
2019-03-10T03:39:07.219Z,94063.89
2019-03-10T03:41:35.919Z,94077.46
2019-03-10T03:44:04.595Z,94081.68
2019-03-10T03:46:33.215Z,94071.08
2019-03-10T03:49:01.884Z,94077.28
2019-03-10T03:51:30.516Z,94073.17
2019-03-10T03:53:59.167Z,94075.06
2019-03-10T03:56:27.841Z,94071.60
2019-03-10T03:58:56.566Z,94061.73
2019-03-10T04:01:26.805Z,94067.30
2019-03-10T04:03:56.804Z,94062.14
2019-03-10T04:06:25.483Z,94060.55
2019-03-10T04:08:55.797Z,94065.41
2019-03-10T04:11:24.503Z,94065.38
2019-03-10T04:13:53.175Z,94066.74
2019-03-10T04:16:21.792Z,94061.42
2019-03-10T04:18:50.465Z,94060.94
2019-03-10T04:21:19.155Z,94070.95
2019-03-10T04:23:47.771Z,94061.47
2019-03-10T04:26:16.410Z,94059.88
2019-03-10T04:28:45.131Z,94065.77
2019-03-10T04:31:13.803Z,94061.30
2019-03-10T04:33:42.440Z,94064.63
2019-03-10T04:36:11.167Z,94068.70
2019-03-10T04:38:40.763Z,94058.10
2019-03-10T04:41:09.458Z,94052.62
2019-03-10T04:43:38.453Z,94056.33
2019-03-10T04:46:07.221Z,94051.75
2019-03-10T04:48:35.978Z,94049.88
2019-03-10T04:51:04.659Z,94045.30
2019-03-10T04:53:33.421Z,94044.45
2019-03-10T04:56:15.943Z,94023.66
2019-03-10T04:58:46.131Z,94008.94
2019-03-10T05:01:14.796Z,94011.91
2019-03-10T05:03:43.503Z,93997.98
2019-03-10T05:06:12.169Z,93994.85
2019-03-10T05:08:40.798Z,93983.50
2019-03-10T05:11:09.467Z,93978.09
2019-03-10T05:13:38.174Z,93986.41
2019-03-10T05:16:06.792Z,93991.12
2019-03-10T05:18:35.422Z,93987.22
2019-03-10T05:21:04.096Z,93975.44
2019-03-10T05:23:35.391Z,93971.67
2019-03-10T05:26:04.184Z,93981.46
2019-03-10T05:28:38.097Z,93974.29
2019-03-10T05:31:06.794Z,93972.05
2019-03-10T05:33:35.408Z,93973.22
2019-03-10T05:36:04.082Z,93976.93
2019-03-10T05:38:32.744Z,93982.94
2019-03-10T05:41:01.400Z,93984.04
2019-03-10T05:43:30.041Z,93981.83
2019-03-10T05:45:58.835Z,93977.84
2019-03-10T05:48:27.484Z,93973.58
2019-03-10T05:50:56.174Z,93967.93
2019-03-10T05:53:24.755Z,93950.98
2019-03-10T05:55:53.385Z,93950.30
2019-03-10T05:58:22.098Z,93949.77
2019-03-10T06:00:50.759Z,93955.34
2019-03-10T06:03:19.423Z,93943.50
2019-03-10T06:05:48.141Z,93938.03
2019-03-10T06:08:16.815Z,93938.58
2019-03-10T06:10:45.430Z,93926.09
2019-03-10T06:13:14.105Z,93915.25
2019-03-10T06:15:42.718Z,93909.67
2019-03-10T06:18:13.856Z,93912.24
2019-03-10T06:20:42.197Z,93899.75
2019-03-10T06:23:10.856Z,93887.67
2019-03-10T06:25:39.500Z,93886.61
2019-03-10T06:28:08.217Z,93883.84
2019-03-10T06:30:36.842Z,93879.16
2019-03-10T06:33:05.535Z,93876.14
2019-03-10T06:35:34.197Z,93869.33
2019-03-10T06:38:02.822Z,93865.55
2019-03-10T06:40:32.564Z,93857.09
2019-03-10T06:43:01.504Z,93857.42
2019-03-10T06:45:30.201Z,93851.89
2019-03-10T06:47:58.830Z,93845.25
2019-03-10T06:50:27.641Z,93846.12
2019-03-10T06:52:56.370Z,93850.58
2019-03-10T06:55:25.507Z,93843.91
2019-03-10T06:57:57.287Z,93835.66
2019-03-10T07:00:26.059Z,93826.73
2019-03-10T07:02:54.678Z,93821.95
2019-03-10T07:05:23.361Z,93824.54
2019-03-10T07:07:52.002Z,93831.23
2019-03-10T07:10:20.809Z,93826.83
2019-03-10T07:12:49.442Z,93828.91
2019-03-10T07:15:18.138Z,93826.63
2019-03-10T07:17:46.835Z,93833.58
2019-03-10T07:20:22.192Z,93830.59
2019-03-10T07:22:50.962Z,93829.20
2019-03-10T07:25:19.670Z,93834.50
2019-03-10T07:27:55.867Z,93857.42
2019-03-10T07:30:44.167Z,93852.67
2019-03-10T07:33:17.154Z,93827.67
2019-03-10T07:35:50.450Z,93834.12
2019-03-10T07:38:38.083Z,93844.55
2019-03-10T07:41:17.524Z,93843.03
2019-03-10T07:43:56.853Z,93861.86
2019-03-10T07:46:43.256Z,93826.30
2019-03-10T07:49:28.812Z,93855.12
2019-03-10T07:51:59.081Z,93879.39
2019-03-10T07:54:29.273Z,93856.22
2019-03-10T07:57:15.843Z,93859.71
2019-03-10T07:59:51.803Z,93860.91
2019-03-10T08:02:27.845Z,93845.13
2019-03-10T08:04:58.038Z,93828.16
2019-03-10T08:07:31.369Z,93811.51
2019-03-10T08:10:01.645Z,93792.13
2019-03-10T08:12:39.339Z,93784.25
2019-03-10T08:15:16.732Z,93776.25
2019-03-10T08:17:46.947Z,93763.60
2019-03-10T08:20:23.336Z,93757.27
2019-03-10T08:22:53.644Z,93760.28
2019-03-10T08:25:27.034Z,93762.18
2019-03-10T08:28:06.381Z,93755.22
2019-03-10T08:30:46.030Z,93760.03
2019-03-10T08:33:32.638Z,93747.62
2019-03-10T08:36:21.171Z,93752.19
2019-03-10T08:38:57.882Z,93749.29
2019-03-10T08:41:33.909Z,93755.64
2019-03-10T08:44:09.892Z,93744.37
2019-03-10T08:46:40.395Z,93752.21
2019-03-10T08:49:27.011Z,93734.95
2019-03-10T08:52:03.159Z,93732.27
2019-03-10T08:54:33.496Z,93723.59
2019-03-10T08:57:03.817Z,93722.13
2019-03-10T08:59:50.211Z,93727.58
2019-03-10T09:02:35.896Z,93730.92
2019-03-10T09:05:10.898Z,93728.05
2019-03-10T09:07:44.029Z,93724.97
2019-03-10T09:10:20.394Z,93739.60
2019-03-10T09:13:06.190Z,93732.24
2019-03-10T09:15:52.496Z,93746.08
2019-03-10T09:18:32.441Z,93709.34
2019-03-10T09:21:18.221Z,93727.27
2019-03-10T09:23:57.170Z,93729.77
2019-03-10T09:26:45.691Z,93721.44
2019-03-10T09:29:21.751Z,93708.02
2019-03-10T09:31:58.035Z,93701.59
2019-03-10T09:34:46.330Z,93698.01
2019-03-10T09:37:16.829Z,93699.67
2019-03-10T09:39:50.198Z,93703.00
2019-03-10T09:42:32.495Z,93698.23
2019-03-10T09:45:05.592Z,93692.69
2019-03-10T09:47:52.148Z,93705.48
2019-03-10T09:50:28.413Z,93697.85
2019-03-10T09:52:59.291Z,93692.98
2019-03-10T09:55:33.838Z,93689.39
2019-03-10T09:58:06.860Z,93678.59
2019-03-10T10:00:37.067Z,93674.23
2019-03-10T10:03:07.478Z,93669.06
2019-03-10T10:05:49.961Z,93659.23
2019-03-10T10:08:20.353Z,93658.76
2019-03-10T10:10:50.567Z,93645.55
2019-03-10T10:13:20.873Z,93646.01
2019-03-10T10:15:54.233Z,93641.38
2019-03-10T10:18:24.545Z,93637.67
2019-03-10T10:20:54.825Z,93644.37
2019-03-10T10:23:25.082Z,93641.08
2019-03-10T10:26:07.411Z,93645.09
2019-03-10T10:28:37.619Z,93648.84
2019-03-10T10:31:07.895Z,93650.00
2019-03-10T10:33:38.122Z,93650.50
2019-03-10T10:36:17.716Z,93654.72
2019-03-10T10:38:57.062Z,93654.09
2019-03-10T10:41:33.418Z,93647.04
2019-03-10T10:44:06.509Z,93654.45
2019-03-10T10:46:53.020Z,93649.39
2019-03-10T10:49:35.957Z,93642.50
2019-03-10T10:52:18.454Z,93628.00
2019-03-10T10:55:00.981Z,93623.41
2019-03-10T10:57:31.305Z,93605.73
2019-03-10T11:00:04.369Z,93588.06
2019-03-10T11:02:34.792Z,93583.40
2019-03-10T11:05:08.190Z,93582.27
2019-03-10T11:07:38.509Z,93571.99
2019-03-10T11:10:20.731Z,93565.82
2019-03-10T11:13:07.597Z,93565.24
2019-03-10T11:15:39.294Z,93578.02
2019-03-10T11:18:14.812Z,93585.25
2019-03-10T11:20:56.222Z,93577.23
2019-03-10T11:23:27.602Z,93572.07
2019-03-10T11:25:57.865Z,93563.72
2019-03-10T11:28:44.423Z,93562.29
2019-03-10T11:31:26.870Z,93566.03
2019-03-10T11:34:00.328Z,93564.88
2019-03-10T11:36:46.810Z,93561.94
2019-03-10T11:39:33.322Z,93557.34
2019-03-10T11:42:03.543Z,93563.67
2019-03-10T11:44:33.977Z,93556.91
2019-03-10T11:47:20.482Z,93559.34
2019-03-10T11:50:09.443Z,93565.23
2019-03-10T11:52:54.609Z,93566.98
2019-03-10T11:55:24.936Z,93568.54
2019-03-10T11:57:55.242Z,93563.20
2019-03-10T12:00:25.436Z,93554.37
2019-03-10T12:02:55.708Z,93555.05
2019-03-10T12:05:25.924Z,93554.61
2019-03-10T12:08:12.578Z,93556.25
2019-03-10T12:10:42.897Z,93546.36
2019-03-10T12:13:13.695Z,93545.42
2019-03-10T12:15:42.374Z,93546.58
2019-03-10T12:18:11.365Z,93542.55
2019-03-10T12:20:41.691Z,93536.94
2019-03-10T12:23:10.382Z,93536.23
2019-03-10T12:25:39.181Z,93531.57
2019-03-10T12:28:12.477Z,93525.16
2019-03-10T12:30:42.684Z,93517.44
2019-03-10T12:33:11.402Z,93510.64
2019-03-10T12:35:43.181Z,93510.47
2019-03-10T12:38:11.920Z,93512.87
2019-03-10T12:40:42.350Z,93512.38
2019-03-10T12:43:11.138Z,93515.93
2019-03-10T12:45:39.921Z,93520.06
2019-03-10T12:48:08.819Z,93508.78
2019-03-10T12:50:37.513Z,93515.58
2019-03-10T12:53:06.802Z,93531.27
2019-03-10T12:55:35.849Z,93529.01
2019-03-10T12:58:06.794Z,93537.05
2019-03-10T13:00:35.233Z,93541.39
2019-03-10T13:03:04.133Z,93536.36
2019-03-10T13:05:32.908Z,93533.05
2019-03-10T13:08:03.834Z,93527.03
2019-03-10T13:10:32.525Z,93535.16
2019-03-10T13:13:05.281Z,93523.94
2019-03-10T13:15:33.967Z,93514.98
2019-03-10T13:18:04.008Z,93518.70
2019-03-10T13:20:34.091Z,93510.53
2019-03-10T13:23:05.881Z,93508.64
2019-03-10T13:25:34.613Z,93511.09
2019-03-10T13:28:07.794Z,93507.37
2019-03-10T13:30:36.592Z,93501.98
2019-03-10T13:33:11.169Z,93492.30
2019-03-10T13:35:41.527Z,93501.64
2019-03-10T13:38:11.704Z,93471.09
2019-03-10T13:40:41.296Z,93474.05
2019-03-10T13:43:12.713Z,93458.10
2019-03-10T13:45:41.336Z,93447.52
2019-03-10T13:48:10.135Z,93425.17
2019-03-10T13:50:38.767Z,93431.73
2019-03-10T13:53:08.518Z,93433.73
2019-03-10T13:55:37.126Z,93429.73
2019-03-10T13:58:09.793Z,93420.91
2019-03-10T14:00:38.489Z,93407.70
2019-03-10T14:03:07.293Z,93402.77
2019-03-10T14:05:37.597Z,93410.16
2019-03-10T14:08:06.229Z,93405.34
2019-03-10T14:10:34.983Z,93386.57
2019-03-10T14:13:05.298Z,93386.86
2019-03-10T14:15:38.050Z,93388.09
2019-03-10T14:18:06.693Z,93373.68
2019-03-10T14:20:35.323Z,93362.02
2019-03-10T14:23:07.019Z,93358.70
2019-03-10T14:25:37.238Z,93366.62
2019-03-10T14:28:05.940Z,93361.86
2019-03-10T14:30:34.622Z,93362.69
2019-03-10T14:33:03.337Z,93382.42
2019-03-10T14:35:31.976Z,93372.81
2019-03-10T14:38:02.347Z,93374.89
2019-03-10T14:40:32.322Z,93366.98
2019-03-10T14:43:01.018Z,93372.94
2019-03-10T14:45:31.007Z,93374.77
2019-03-10T14:47:59.743Z,93382.06
2019-03-10T14:50:28.770Z,93379.13
2019-03-10T14:52:57.449Z,93356.17
2019-03-10T14:55:26.227Z,93355.39
2019-03-10T14:57:57.945Z,93335.24
2019-03-10T15:00:29.045Z,93340.52
2019-03-10T15:03:00.529Z,93343.69
2019-03-10T15:05:29.428Z,93347.11
2019-03-10T15:07:58.089Z,93340.22
2019-03-10T15:10:30.278Z,93336.47
2019-03-10T15:13:02.576Z,93335.11
2019-03-10T15:15:31.259Z,93311.23
2019-03-10T15:18:03.268Z,93320.41
2019-03-10T15:20:31.981Z,93316.23
2019-03-10T15:23:03.342Z,93307.62
2019-03-10T15:25:32.035Z,93319.05
2019-03-10T15:28:00.807Z,93311.17
2019-03-10T15:30:29.523Z,93304.55
2019-03-10T15:32:58.302Z,93309.09
2019-03-10T15:35:30.000Z,93310.63
2019-03-10T15:37:58.786Z,93322.52
2019-03-10T15:40:27.428Z,93308.37
2019-03-10T15:42:59.191Z,93306.82
2019-03-10T15:45:28.145Z,93311.95
2019-03-10T15:47:57.079Z,93307.61
2019-03-10T15:50:31.667Z,93311.97
2019-03-10T15:53:00.506Z,93304.91
2019-03-10T15:55:29.199Z,93302.26
2019-03-10T15:57:57.822Z,93309.37
2019-03-10T16:00:27.779Z,93309.77
2019-03-10T16:02:58.047Z,93306.71
2019-03-10T16:05:28.416Z,93302.36
2019-03-10T16:07:57.036Z,93288.23
2019-03-10T16:10:25.715Z,93294.80
2019-03-10T16:12:54.423Z,93299.67
2019-03-10T16:15:27.879Z,93316.27
2019-03-10T16:17:56.672Z,93308.08
2019-03-10T16:20:25.352Z,93303.00
2019-03-10T16:22:55.403Z,93313.24
2019-03-10T16:25:24.471Z,93316.77
2019-03-10T16:27:53.206Z,93313.11
2019-03-10T16:30:23.699Z,93314.47
2019-03-10T16:32:52.577Z,93321.47
2019-03-10T16:35:22.814Z,93312.62
2019-03-10T16:37:51.681Z,93308.06
2019-03-10T16:40:21.536Z,93318.20
2019-03-10T16:42:50.902Z,93320.03
2019-03-10T16:45:21.536Z,93318.49
2019-03-10T16:47:50.321Z,93317.58
2019-03-10T16:50:29.347Z,93326.67
2019-03-10T16:52:59.586Z,93325.52
2019-03-10T16:55:28.366Z,93326.44
2019-03-10T16:57:57.356Z,93327.34
2019-03-10T17:00:26.046Z,93321.27
2019-03-10T17:02:54.721Z,93305.23
2019-03-10T17:05:25.195Z,93314.25
2019-03-10T17:07:53.942Z,93300.41
2019-03-10T17:10:30.415Z,93308.25
2019-03-10T17:13:00.738Z,93302.51
2019-03-10T17:15:29.420Z,93307.75
2019-03-10T17:17:58.204Z,93317.08
2019-03-10T17:20:27.099Z,93344.39
2019-03-10T17:22:56.458Z,93360.53
2019-03-10T17:25:31.013Z,93341.14
2019-03-10T17:27:59.717Z,93340.73
2019-03-10T17:30:29.974Z,93345.34
2019-03-10T17:32:59.031Z,93350.67
2019-03-10T17:35:27.721Z,93357.54
2019-03-10T17:37:56.527Z,93373.39
2019-03-10T17:40:25.907Z,93355.68
2019-03-10T17:42:54.606Z,93345.29
2019-03-10T17:45:26.503Z,93354.55
2019-03-10T17:47:57.752Z,93345.34
2019-03-10T17:50:26.803Z,93324.27
2019-03-10T17:52:59.918Z,93310.83
2019-03-10T17:55:31.646Z,93301.91
2019-03-10T17:58:00.337Z,93328.67
2019-03-10T18:00:33.579Z,93341.41
2019-03-10T18:03:02.316Z,93365.19
2019-03-10T18:05:34.794Z,93369.47
2019-03-10T18:08:03.728Z,93376.19
2019-03-10T18:10:32.471Z,93359.31
2019-03-10T18:13:01.310Z,93362.28
2019-03-10T18:15:32.439Z,93357.20
2019-03-10T18:18:01.214Z,93370.42
2019-03-10T18:20:31.527Z,93395.47
2019-03-10T18:23:03.011Z,93408.50
2019-03-10T18:25:31.860Z,93416.28
2019-03-10T18:28:00.784Z,93435.81
2019-03-10T18:30:33.960Z,93444.98
2019-03-10T18:33:05.705Z,93459.17
2019-03-10T18:35:40.182Z,93464.98
2019-03-10T18:38:08.977Z,93454.85
2019-03-10T18:40:39.357Z,93448.78
2019-03-10T18:43:08.134Z,93468.72
2019-03-10T18:45:36.908Z,93453.30
2019-03-10T18:48:07.258Z,93429.13
2019-03-10T18:50:35.948Z,93433.15
2019-03-10T18:53:04.721Z,93443.82
2019-03-10T18:55:33.713Z,93444.69
2019-03-10T18:58:04.500Z,93447.75
2019-03-10T19:00:39.322Z,93452.87
2019-03-10T19:03:10.041Z,93447.88
2019-03-10T19:05:39.328Z,93459.89
2019-03-10T19:08:12.958Z,93465.34
2019-03-10T19:10:43.366Z,93477.63
2019-03-10T19:13:13.982Z,93452.66
2019-03-10T19:15:42.786Z,93443.74
2019-03-10T19:18:12.556Z,93459.66
2019-03-10T19:20:41.872Z,93452.98
2019-03-10T19:23:10.760Z,93455.77
2019-03-10T19:25:42.958Z,93462.28
2019-03-10T19:28:14.869Z,93466.45
2019-03-10T19:30:45.366Z,93461.81
2019-03-10T19:33:15.093Z,93473.43
2019-03-10T19:35:45.494Z,93456.25
2019-03-10T19:38:16.443Z,93464.98
2019-03-10T19:40:47.275Z,93455.96
2019-03-10T19:43:18.038Z,93477.55
2019-03-10T19:45:47.006Z,93496.73
2019-03-10T19:48:16.421Z,93519.14
2019-03-10T19:50:45.627Z,93515.08
2019-03-10T19:53:14.904Z,93531.69
2019-03-10T19:55:44.050Z,93514.73
2019-03-10T19:58:13.071Z,93517.84
2019-03-10T20:00:42.162Z,93483.38
2019-03-10T20:03:12.596Z,93507.03
2019-03-10T20:05:42.034Z,93507.80
2019-03-10T20:08:12.999Z,93513.17
2019-03-10T20:10:41.733Z,93511.47
2019-03-10T20:13:10.937Z,93521.44
2019-03-10T20:15:39.657Z,93540.48
2019-03-10T20:18:08.383Z,93521.98
2019-03-10T20:20:37.335Z,93518.97
2019-03-10T20:23:06.304Z,93514.61
2019-03-10T20:25:35.058Z,93526.32
2019-03-10T20:28:03.953Z,93505.20
2019-03-10T20:30:32.750Z,93514.98
2019-03-10T20:33:03.247Z,93512.16
2019-03-10T20:35:34.784Z,93527.66
2019-03-10T20:38:03.017Z,93525.04
2019-03-10T20:40:32.095Z,93529.67
2019-03-10T20:43:03.849Z,93522.19
2019-03-10T20:45:32.661Z,93512.24
2019-03-10T20:48:01.347Z,93525.19
2019-03-10T20:50:31.651Z,93550.70
2019-03-10T20:53:01.972Z,93580.62
2019-03-10T20:55:30.627Z,93597.77
2019-03-10T20:58:00.914Z,93590.42
2019-03-10T21:00:29.993Z,93597.51
2019-03-10T21:02:58.762Z,93581.52
2019-03-10T21:05:27.430Z,93593.32
2019-03-10T21:07:56.162Z,93607.55
2019-03-10T21:10:26.440Z,93640.94
2019-03-10T21:12:55.171Z,93631.66
2019-03-10T21:15:26.388Z,93653.02
2019-03-10T21:17:54.841Z,93673.67
2019-03-10T21:20:27.212Z,93685.45
2019-03-10T21:22:55.904Z,93684.66
2019-03-10T21:25:31.894Z,93707.19
2019-03-10T21:28:00.713Z,93700.67
2019-03-10T21:30:33.455Z,93718.23
2019-03-10T21:33:02.191Z,93729.59
2019-03-10T21:35:33.162Z,93700.73
2019-03-10T21:38:01.267Z,93693.61
2019-03-10T21:40:34.088Z,93656.61
2019-03-10T21:43:02.756Z,93648.66
2019-03-10T21:45:31.566Z,93697.52
2019-03-10T21:48:01.813Z,93641.39
2019-03-10T21:50:30.499Z,93700.52
2019-03-10T21:52:59.185Z,93661.98
2019-03-10T21:55:27.877Z,93675.53
2019-03-10T21:57:56.523Z,93655.44
2019-03-10T22:00:25.304Z,93657.58
2019-03-10T22:02:53.988Z,93677.78
2019-03-10T22:05:22.629Z,93644.20
2019-03-10T22:07:51.277Z,93660.33
2019-03-10T22:10:26.862Z,93666.41
2019-03-10T22:12:51.203Z,93693.95
2019-03-10T22:15:20.820Z,93674.29
2019-03-10T22:17:49.432Z,93691.98
2019-03-10T22:20:18.818Z,93671.44
2019-03-10T22:22:49.924Z,93679.38
2019-03-10T22:25:18.321Z,93675.48
2019-03-10T22:27:47.080Z,93667.73
2019-03-10T22:30:22.911Z,93698.69
2019-03-10T22:32:51.600Z,93689.78
2019-03-10T22:35:21.578Z,93672.84
2019-03-10T22:37:50.281Z,93681.36
2019-03-10T22:40:19.022Z,93673.89
2019-03-10T22:42:47.742Z,93688.84
2019-03-10T22:45:20.536Z,93695.85
2019-03-10T22:47:49.204Z,93674.29
2019-03-10T22:50:18.260Z,93703.98
2019-03-10T22:52:46.861Z,93714.53
2019-03-10T22:55:16.019Z,93688.03
2019-03-10T22:57:44.885Z,93715.34
2019-03-10T23:00:25.825Z,93710.33
2019-03-10T23:02:54.505Z,93726.73
2019-03-10T23:05:23.180Z,93725.91
2019-03-10T23:07:51.856Z,93731.28
2019-03-10T23:10:20.482Z,93710.53
2019-03-10T23:12:49.159Z,93734.54
2019-03-10T23:15:17.820Z,93720.34
2019-03-10T23:17:46.441Z,93727.56
2019-03-10T23:20:16.427Z,93715.02
2019-03-10T23:22:45.040Z,93720.51
2019-03-10T23:25:13.775Z,93699.19
2019-03-10T23:27:42.543Z,93717.39
2019-03-10T23:30:16.547Z,93714.71
2019-03-10T23:32:45.165Z,93709.83
2019-03-10T23:35:13.956Z,93701.75
2019-03-10T23:37:42.712Z,93699.56
2019-03-10T23:47:07.655Z,93721.33
2019-03-10T23:49:36.263Z,93747.58
2019-03-10T23:52:04.925Z,93718.80
2019-03-10T23:54:33.637Z,93717.17
2019-03-10T23:57:03.618Z,93724.44
2019-03-10T23:59:32.288Z,93749.52
